Time;durP1;ratioP1;P1;durP2;ratioP2;P2;SDS_P1;SDS_P2;PMS_P1;PMS_P2;Temp;Humidity;BMP_temperature;BMP_pressure;BME280_temperature;BME280_humidity;BME280_pressure;Samples;Min_cycle;Max_cycle;Signal;HPM_P1;HPM_P2
2023/02/27 00:02:14;;;;;;;10.10;6.30;;;;;;;1.62;100.00;99739.52;107086;1273;23766;-64
2023/02/27 00:04:42;;;;;;;7.80;5.80;;;;;;;1.55;100.00;99741.65;110253;1275;23205;-64
2023/02/27 00:07:11;;;;;;;8.10;5.10;;;;;;;1.52;100.00;99745.75;110427;1269;22323;-65
2023/02/27 00:09:42;;;;;;;7.20;5.20;;;;;;;1.41;100.00;99746.29;110402;1275;22235;-65
2023/02/27 00:12:14;;;;;;;6.90;5.50;;;;;;;1.34;100.00;99748.04;110432;1276;22289;-65
2023/02/27 00:14:42;;;;;;;8.20;5.70;;;;;;;1.24;100.00;99758.77;110442;1275;22502;-64
2023/02/27 00:17:10;;;;;;;8.50;5.30;;;;;;;1.18;100.00;99758.25;110411;1275;22388;-65
2023/02/27 00:19:41;;;;;;;6.40;4.70;;;;;;;1.15;100.00;99754.88;110422;1276;22937;-64
2023/02/27 00:22:09;;;;;;;7.80;5.60;;;;;;;1.09;100.00;99755.47;109930;1275;25350;-64
2023/02/27 00:24:44;;;;;;;7.10;5.10;;;;;;;1.02;100.00;99761.09;106796;1276;22605;-64
2023/02/27 00:27:12;;;;;;;8.10;5.50;;;;;;;1.00;100.00;99764.94;106708;1276;25691;-63
2023/02/27 00:29:42;;;;;;;7.30;5.10;;;;;;;0.91;100.00;99763.48;106960;1276;25373;-64
2023/02/27 00:32:10;;;;;;;9.10;5.60;;;;;;;0.80;100.00;99761.13;106788;1274;23408;-64
2023/02/27 00:34:41;;;;;;;8.50;4.90;;;;;;;0.76;100.00;99766.00;106358;1278;23301;-64
2023/02/27 00:37:10;;;;;;;9.00;6.10;;;;;;;0.77;100.00;99766.21;106490;1278;22637;-64
2023/02/27 00:39:38;;;;;;;8.10;5.60;;;;;;;0.72;100.00;99771.13;106582;1277;24272;-64
2023/02/27 00:42:07;;;;;;;8.30;5.40;;;;;;;0.63;100.00;99772.36;106474;1278;25380;-64
2023/02/27 00:44:37;;;;;;;8.00;5.10;;;;;;;0.63;100.00;99780.11;106419;1278;25431;-64
2023/02/27 00:47:07;;;;;;;8.90;5.80;;;;;;;0.59;100.00;99783.45;106651;1277;25391;-64
2023/02/27 00:49:36;;;;;;;8.90;5.90;;;;;;;0.50;100.00;99791.98;106464;1277;23998;-63
2023/02/27 00:52:05;;;;;;;8.50;5.60;;;;;;;0.49;100.00;99790.91;106387;1264;22641;-63
2023/02/27 00:54:33;;;;;;;6.60;4.80;;;;;;;0.46;100.00;99789.13;106474;1277;25639;-63
2023/02/27 00:57:01;;;;;;;7.00;5.10;;;;;;;0.42;100.00;99795.39;106447;1269;25291;-63
2023/02/27 00:59:30;;;;;;;7.40;5.10;;;;;;;0.40;100.00;99802.76;106476;1277;25440;-63
2023/02/27 01:01:58;;;;;;;7.50;5.10;;;;;;;0.35;100.00;99808.11;106191;1277;25373;-63
2023/02/27 01:04:31;;;;;;;7.60;5.10;;;;;;;0.34;100.00;99808.40;110171;1278;22437;-64
2023/02/27 01:06:59;;;;;;;7.60;5.50;;;;;;;0.34;100.00;99809.88;110165;1278;22786;-65
2023/02/27 01:09:28;;;;;;;7.50;5.50;;;;;;;0.31;100.00;99814.70;110169;1278;22193;-65
2023/02/27 01:11:56;;;;;;;8.00;5.10;;;;;;;0.32;100.00;99813.14;110252;1277;22211;-64
2023/02/27 01:14:25;;;;;;;7.50;5.50;;;;;;;0.33;100.00;99813.34;110267;1277;22220;-65
2023/02/27 01:16:53;;;;;;;6.70;4.90;;;;;;;0.29;100.00;99814.61;110301;1277;22196;-65
2023/02/27 01:19:21;;;;;;;6.70;4.80;;;;;;;0.27;100.00;99817.63;110078;1270;22359;-65
2023/02/27 01:21:50;;;;;;;8.30;5.70;;;;;;;0.26;100.00;99821.31;110362;1276;22306;-65
2023/02/27 01:24:18;;;;;;;8.90;6.00;;;;;;;0.21;100.00;99823.00;110278;1277;22244;-64
2023/02/27 01:26:48;;;;;;;7.40;5.00;;;;;;;0.19;100.00;99819.17;110285;1277;22910;-64
2023/02/27 01:29:16;;;;;;;6.60;5.00;;;;;;;0.22;100.00;99816.08;110350;1276;23065;-64
2023/02/27 01:31:45;;;;;;;7.60;5.50;;;;;;;0.16;100.00;99810.67;110396;1270;22312;-64
2023/02/27 01:34:13;;;;;;;8.90;5.60;;;;;;;0.13;100.00;99810.42;110317;1276;22856;-64
2023/02/27 01:36:42;;;;;;;7.20;5.20;;;;;;;0.14;100.00;99809.23;110428;1276;22253;-65
2023/02/27 01:39:11;;;;;;;8.10;5.40;;;;;;;0.10;100.00;99815.77;110381;1270;22419;-64
2023/02/27 01:41:39;;;;;;;8.50;5.90;;;;;;;0.02;100.00;99817.89;110442;1275;22274;-65
2023/02/27 01:44:12;;;;;;;7.60;5.40;;;;;;;0.02;100.00;99816.49;110426;1274;24291;-63
2023/02/27 01:46:40;;;;;;;7.50;5.40;;;;;;;0.05;100.00;99819.01;110449;1276;22236;-63
2023/02/27 01:49:22;;;;;;;8.70;5.50;;;;;;;0.01;100.00;99818.70;110282;1275;22234;-63
2023/02/27 01:51:53;;;;;;;7.90;5.70;;;;;;;-0.07;100.00;99819.59;110311;1276;22957;-64
2023/02/27 01:54:23;;;;;;;8.90;5.90;;;;;;;-0.04;100.00;99821.95;110284;1276;22182;-64
2023/02/27 01:56:52;;;;;;;8.60;6.20;;;;;;;-0.06;100.00;99821.36;110419;1276;22270;-64
2023/02/27 01:59:20;;;;;;;9.20;6.20;;;;;;;-0.04;100.00;99820.88;110269;1276;22281;-64
2023/02/27 02:01:50;;;;;;;10.80;6.10;;;;;;;-0.11;100.00;99819.61;110425;1275;22331;-64
2023/02/27 02:04:26;;;;;;;7.30;5.30;;;;;;;-0.21;100.00;99820.15;110449;1276;22299;-64
2023/02/27 02:07:00;;;;;;;8.70;5.90;;;;;;;-0.20;100.00;99820.45;109392;1275;22542;-63
2023/02/27 02:09:29;;;;;;;8.90;6.30;;;;;;;-0.26;100.00;99824.88;107005;1269;22530;-63
2023/02/27 02:11:57;;;;;;;7.70;5.60;;;;;;;-0.28;100.00;99825.57;106629;1276;27592;-63
2023/02/27 02:14:26;;;;;;;8.30;6.00;;;;;;;-0.28;100.00;99826.75;107013;1276;26513;-64
2023/02/27 02:16:59;;;;;;;9.40;6.10;;;;;;;-0.38;100.00;99833.01;106591;1254;22550;-63
2023/02/27 02:19:39;;;;;;;8.70;5.80;;;;;;;-0.41;100.00;99836.61;106667;1276;22534;-64
2023/02/27 02:22:08;;;;;;;8.50;6.10;;;;;;;-0.42;100.00;99839.00;106530;1275;25430;-63
2023/02/27 02:24:57;;;;;;;8.90;6.10;;;;;;;-0.50;100.00;99841.89;106447;1276;25274;-63
2023/02/27 02:27:48;;;;;;;11.20;6.90;;;;;;;-0.52;100.00;99848.33;106434;1276;27688;-63
2023/02/27 02:30:55;;;;;;;9.40;6.20;;;;;;;-0.54;100.00;99848.77;106933;1276;25420;-63
2023/02/27 02:33:23;;;;;;;9.90;5.70;;;;;;;-0.62;100.00;99853.20;106950;1276;26627;-63
2023/02/27 02:36:10;;;;;;;9.70;7.00;;;;;;;-0.58;100.00;99856.85;107958;1276;25331;-63
2023/02/27 02:38:48;;;;;;;9.70;6.60;;;;;;;-0.61;100.00;99860.90;107722;1270;23123;-64
2023/02/27 02:41:37;;;;;;;10.80;7.20;;;;;;;-0.69;100.00;99866.98;110369;1269;22231;-64
2023/02/27 02:44:27;;;;;;;10.30;6.70;;;;;;;-0.66;100.00;99861.82;110281;1276;23014;-64
2023/02/27 02:47:45;;;;;;;9.10;6.70;;;;;;;-0.66;100.00;99870.63;110425;1275;22376;-64
2023/02/27 02:50:35;;;;;;;10.90;6.90;;;;;;;-0.68;100.00;99867.90;110366;1275;22296;-65
2023/02/27 02:53:08;;;;;;;10.10;6.40;;;;;;;-0.64;100.00;99872.49;110342;1275;22225;-65
2023/02/27 02:55:49;;;;;;;9.00;6.30;;;;;;;-0.65;100.00;99873.06;110191;1275;22305;-65
2023/02/27 02:58:24;;;;;;;10.50;7.50;;;;;;;-0.68;100.00;99874.44;109300;1275;22629;-64
2023/02/27 03:01:14;;;;;;;9.20;6.30;;;;;;;-0.63;100.00;99875.48;107843;1275;22657;-64
2023/02/27 03:03:46;;;;;;;10.50;7.10;;;;;;;-0.58;100.00;99879.18;106860;1275;25366;-63
2023/02/27 03:06:19;;;;;;;9.20;6.80;;;;;;;-0.61;100.00;99881.64;106677;1274;23130;-64
2023/02/27 03:08:54;;;;;;;8.50;6.30;;;;;;;-0.63;100.00;99885.90;106618;1275;26160;-63
2023/02/27 03:11:23;;;;;;;9.40;6.60;;;;;;;-0.62;100.00;99886.36;106548;1273;22527;-63
2023/02/27 03:13:59;;;;;;;10.30;7.50;;;;;;;-0.68;100.00;99890.06;106521;1275;25360;-63
2023/02/27 03:16:45;;;;;;;10.10;7.00;;;;;;;-0.76;100.00;99892.77;106960;1275;22530;-64
2023/02/27 03:19:32;;;;;;;10.40;7.40;;;;;;;-0.74;100.00;99899.68;106698;1270;23814;-64
2023/02/27 03:22:09;;;;;;;10.70;7.50;;;;;;;-0.79;100.00;99904.31;106729;1275;25373;-64
2023/02/27 03:24:40;;;;;;;9.10;6.50;;;;;;;-0.83;100.00;99907.52;106918;1275;25372;-64
2023/02/27 03:27:09;;;;;;;9.80;7.10;;;;;;;-0.80;100.00;99907.09;106798;1275;25683;-63
2023/02/27 03:29:41;;;;;;;10.50;7.50;;;;;;;-0.83;100.00;99908.71;106392;1275;25340;-65
2023/02/27 03:32:13;;;;;;;11.10;7.20;;;;;;;-0.81;100.00;99913.65;106980;1275;25270;-64
2023/02/27 03:34:42;;;;;;;9.60;7.30;;;;;;;-0.78;100.00;99920.21;106458;1275;22586;-64
2023/02/27 03:37:33;;;;;;;11.90;7.40;;;;;;;-0.81;100.00;99918.92;107246;1275;25262;-64
2023/02/27 03:40:02;;;;;;;12.30;8.00;;;;;;;-0.77;100.00;99927.55;110288;1275;23132;-65
2023/02/27 03:42:45;;;;;;;11.10;8.00;;;;;;;-0.78;100.00;99928.41;110361;1275;22916;-65
2023/02/27 03:45:41;;;;;;;9.70;6.60;;;;;;;-0.79;100.00;99927.74;110439;1272;22843;-65
2023/02/27 03:48:10;;;;;;;11.60;7.90;;;;;;;-0.73;100.00;99926.85;110440;1275;22341;-65
2023/02/27 03:50:40;;;;;;;9.40;7.30;;;;;;;-0.72;100.00;99930.84;110211;1275;22296;-65
2023/02/27 03:53:16;;;;;;;9.30;6.80;;;;;;;-0.71;100.00;99928.34;110144;1275;22253;-65
2023/02/27 03:55:44;;;;;;;9.80;7.50;;;;;;;-0.72;100.00;99930.10;110447;1275;23312;-65
2023/02/27 03:58:12;;;;;;;9.60;7.20;;;;;;;-0.78;100.00;99931.16;110450;1275;23170;-65
2023/02/27 04:01:01;;;;;;;9.90;6.90;;;;;;;-0.77;100.00;99932.03;110267;1275;22210;-65
2023/02/27 04:03:31;;;;;;;10.30;7.10;;;;;;;-0.77;100.00;99938.17;110443;1274;22388;-65
2023/02/27 04:07:21;;;;;;;10.40;7.60;;;;;;;-0.81;100.00;99940.55;110178;1275;22256;-65
2023/02/27 04:09:00;;;;;;;10.80;7.30;;;;;;;-0.75;100.00;99944.42;110445;1275;22183;-65
2023/02/27 04:11:57;;;;;;;11.00;7.50;;;;;;;-0.71;100.00;99950.30;110433;1275;22225;-65
2023/02/27 04:14:34;;;;;;;9.50;6.90;;;;;;;-0.72;100.00;99955.23;110225;1275;23214;-65
2023/02/27 04:17:22;;;;;;;9.90;7.10;;;;;;;-0.77;100.00;99959.17;110456;1275;22179;-65
2023/02/27 04:20:01;;;;;;;10.70;7.30;;;;;;;-0.81;100.00;99959.14;110416;1275;22349;-64
2023/02/27 04:22:38;;;;;;;10.20;7.10;;;;;;;-0.76;100.00;99961.27;110448;1275;22299;-63
2023/02/27 04:25:16;;;;;;;;;;;;;;;-0.80;100.00;99965.81;110372;1272;22416;-63
2023/02/27 04:27:56;;;;;;;12.50;8.80;;;;;;;-0.83;100.00;99966.73;110452;1275;22352;-63
2023/02/27 04:30:40;;;;;;;12.60;8.80;;;;;;;-0.78;100.00;99967.60;110421;1275;22559;-63
2023/02/27 04:33:24;;;;;;;11.30;8.40;;;;;;;-0.80;100.00;99967.13;110356;1275;22283;-62
2023/02/27 04:35:59;;;;;;;11.10;7.80;;;;;;;-0.84;100.00;99969.19;110212;1275;23065;-64
2023/02/27 04:38:32;;;;;;;11.30;7.90;;;;;;;-0.80;100.00;99974.08;110229;1275;22274;-63
2023/02/27 04:41:21;;;;;;;11.90;8.60;;;;;;;-0.86;100.00;99976.66;110357;1275;22281;-63
2023/02/27 04:43:49;;;;;;;12.50;8.30;;;;;;;-0.85;100.00;99983.12;110344;1275;22503;-63
2023/02/27 04:48:17;;;;;;;13.60;8.50;;;;;;;-0.79;100.00;99983.36;103476;1305;545050;-62
2023/02/27 04:50:49;;;;;;;11.90;7.80;;;;;;;-0.84;100.00;99993.61;106312;1281;25361;-63
2023/02/27 04:53:50;;;;;;;11.80;7.90;;;;;;;-0.81;100.00;99992.89;109845;1282;23747;-64
2023/02/27 04:56:23;;;;;;;12.30;8.00;;;;;;;-0.80;100.00;99996.73;109293;1275;22913;-63
2023/02/27 04:58:53;;;;;;;12.00;8.10;;;;;;;-0.84;100.00;100002.90;106766;1282;23805;-62
2023/02/27 05:01:23;;;;;;;10.80;7.60;;;;;;;-0.84;100.00;100007.48;105932;1279;344081;-63
2023/02/27 05:03:52;;;;;;;13.60;8.40;;;;;;;-0.89;100.00;100005.66;106278;1279;25297;-62
2023/02/27 05:06:23;;;;;;;11.50;8.20;;;;;;;-0.92;100.00;100013.15;107525;1280;25252;-63
2023/02/27 05:09:17;;;;;;;11.30;7.90;;;;;;;-0.88;100.00;100014.42;106227;1279;23856;-63
2023/02/27 05:12:00;;;;;;;12.40;8.70;;;;;;;-0.93;100.00;100024.04;106953;1273;25126;-63
2023/02/27 05:14:32;;;;;;;13.00;8.60;;;;;;;-0.96;100.00;100025.78;106434;1280;25274;-62
2023/02/27 05:17:08;;;;;;;12.40;8.40;;;;;;;-0.89;100.00;100030.58;106480;1279;24216;-64
2023/02/27 05:19:37;;;;;;;13.60;9.00;;;;;;;-0.89;100.00;100037.56;107275;1279;24024;-63
2023/02/27 05:22:22;;;;;;;14.30;9.30;;;;;;;-0.90;100.00;100042.92;106352;1273;24342;-63
2023/02/27 05:24:53;;;;;;;14.30;9.00;;;;;;;-0.84;100.00;100048.67;106672;1273;25655;-63
2023/02/27 05:27:29;;;;;;;13.60;9.40;;;;;;;-0.87;100.00;100052.80;106261;1279;26175;-63
2023/02/27 05:30:01;;;;;;;13.30;9.20;;;;;;;-0.87;100.00;100053.69;106350;1276;22537;-63
2023/02/27 05:32:33;;;;;;;13.00;8.70;;;;;;;-0.82;100.00;100063.99;108086;1279;25401;-63
2023/02/27 05:35:14;;;;;;;13.40;9.20;;;;;;;-0.75;100.00;100065.34;106233;1279;26513;-63
2023/02/27 05:37:54;;;;;;;14.70;9.40;;;;;;;-0.75;100.00;100066.46;106317;1279;25415;-63
2023/02/27 05:40:24;;;;;;;13.80;9.20;;;;;;;-0.77;100.00;100064.41;106768;1273;22527;-63
2023/02/27 05:42:59;;;;;;;11.00;8.40;;;;;;;-0.71;100.00;100060.97;106466;1277;22716;-63
2023/02/27 05:45:28;;;;;;;15.00;9.70;;;;;;;-0.71;100.00;100065.91;108242;1279;23010;-63
2023/02/27 05:48:04;;;;;;;16.50;10.00;;;;;;;-0.73;100.00;100074.61;105978;1279;25347;-63
2023/02/27 05:50:34;;;;;;;17.70;9.80;;;;;;;-0.69;100.00;100077.95;110046;1279;23064;-64
2023/02/27 05:53:06;;;;;;;14.10;9.40;;;;;;;-0.60;100.00;100078.82;109919;1280;22445;-64
2023/02/27 05:55:40;;;;;;;15.80;10.70;;;;;;;-0.59;100.00;100081.13;109984;1280;22336;-63
2023/02/27 05:58:15;;;;;;;15.90;10.60;;;;;;;-0.60;100.00;100081.52;109944;1279;22283;-64
2023/02/27 06:00:55;;;;;;;14.40;10.10;;;;;;;-0.60;100.00;100085.02;109897;1274;22223;-64
2023/02/27 06:03:24;;;;;;;14.60;10.80;;;;;;;-0.51;100.00;100090.66;109962;1279;22184;-64
2023/02/27 06:05:53;;;;;;;13.90;9.40;;;;;;;-0.48;100.00;100089.11;109975;1274;22679;-64
2023/02/27 06:08:21;;;;;;;14.50;9.10;;;;;;;-0.50;100.00;100090.88;109922;1280;22429;-63
2023/02/27 06:10:53;;;;;;;13.30;9.20;;;;;;;-0.47;100.00;100084.08;107965;1280;22581;-62
2023/02/27 06:13:25;;;;;;;13.20;9.20;;;;;;;-0.41;100.00;100086.64;106100;1277;25586;-63
2023/02/27 06:15:53;;;;;;;10.80;8.10;;;;;;;-0.42;100.00;100086.41;106336;1280;22564;-62
2023/02/27 06:18:22;;;;;;;12.40;8.70;;;;;;;-0.43;100.00;100084.55;106347;1276;25325;-63
2023/02/27 06:20:51;;;;;;;15.30;9.50;;;;;;;-0.42;100.00;100089.04;106310;1277;24232;-62
2023/02/27 06:23:23;;;;;;;13.90;9.40;;;;;;;-0.48;100.00;100091.63;106319;1273;23151;-63
2023/02/27 06:25:52;;;;;;;12.80;8.90;;;;;;;-0.46;100.00;100094.23;106345;1273;25482;-63
2023/02/27 06:28:20;;;;;;;12.40;8.20;;;;;;;-0.43;100.00;100099.04;106026;1273;22770;-63
2023/02/27 06:30:56;;;;;;;13.50;8.50;;;;;;;-0.46;100.00;100096.45;106046;1274;24266;-64
2023/02/27 06:33:24;;;;;;;10.60;7.90;;;;;;;-0.48;100.00;100100.35;106435;1280;22795;-64
2023/02/27 06:35:53;;;;;;;13.60;9.70;;;;;;;-0.48;100.00;100100.68;106457;1273;25453;-63
2023/02/27 06:38:23;;;;;;;15.90;9.50;;;;;;;-0.50;100.00;100097.17;108675;1279;23076;-65
2023/02/27 06:40:52;;;;;;;11.20;8.30;;;;;;;-0.47;100.00;100101.77;109994;1277;22447;-63
2023/02/27 06:43:22;;;;;;;13.00;8.90;;;;;;;-0.47;100.00;100108.35;109958;1280;22798;-63
2023/02/27 06:45:53;;;;;;;12.70;9.00;;;;;;;-0.50;100.00;100107.70;109962;1280;22349;-64
2023/02/27 06:48:22;;;;;;;12.40;8.50;;;;;;;-0.47;100.00;100111.97;109973;1280;23154;-64
2023/02/27 06:50:55;;;;;;;12.80;8.80;;;;;;;-0.44;100.00;100112.28;109934;1276;22269;-64
2023/02/27 06:53:23;;;;;;;15.60;10.30;;;;;;;-0.41;100.00;100114.23;109965;1277;22295;-64
2023/02/27 06:55:51;;;;;;;14.20;9.80;;;;;;;-0.38;100.00;100122.10;109958;1273;23290;-63
2023/02/27 06:58:20;;;;;;;13.60;8.90;;;;;;;-0.29;100.00;100126.98;109986;1280;22214;-63
2023/02/27 07:00:49;;;;;;;19.40;12.70;;;;;;;-0.31;100.00;100120.42;109953;1281;23008;-64
2023/02/27 07:03:17;;;;;;;18.10;12.30;;;;;;;-0.31;100.00;100120.84;109959;1280;23097;-64
2023/02/27 07:05:49;;;;;;;14.20;10.10;;;;;;;-0.24;100.00;100126.01;109998;1272;22219;-65
2023/02/27 07:08:17;;;;;;;15.30;11.40;;;;;;;-0.22;100.00;100128.25;109956;1273;22320;-64
2023/02/27 07:10:47;;;;;;;14.30;10.00;;;;;;;-0.24;100.00;100135.27;109983;1280;22497;-64
2023/02/27 07:13:17;;;;;;;13.30;9.40;;;;;;;-0.22;100.00;100126.67;109926;1279;22221;-66
2023/02/27 07:15:49;;;;;;;16.80;10.10;;;;;;;-0.16;100.00;100129.58;109716;1273;22975;-64
2023/02/27 07:18:18;;;;;;;14.80;10.40;;;;;;;-0.16;100.00;100126.97;110336;1276;22850;-64
2023/02/27 07:20:50;;;;;;;13.80;10.10;;;;;;;-0.12;100.00;100128.20;110382;1272;22981;-64
2023/02/27 07:23:21;;;;;;;12.80;9.70;;;;;;;0.01;100.00;100135.65;110376;1273;22346;-64
2023/02/27 07:25:52;;;;;;;13.80;10.20;;;;;;;0.04;100.00;100133.52;110368;1269;22440;-64
2023/02/27 07:28:21;;;;;;;14.00;10.10;;;;;;;0.03;100.00;100129.19;110311;1276;22379;-64
2023/02/27 07:30:53;;;;;;;13.70;9.80;;;;;;;0.10;100.00;100127.56;110418;1276;22249;-64
2023/02/27 07:33:25;;;;;;;12.60;9.40;;;;;;;0.11;100.00;100128.98;110452;1275;22191;-64
2023/02/27 07:35:53;;;;;;;13.30;9.10;;;;;;;0.18;100.00;100125.81;110347;1268;23231;-64
2023/02/27 07:38:22;;;;;;;13.10;9.50;;;;;;;0.26;100.00;100123.10;110303;1276;23052;-63
2023/02/27 07:40:54;;;;;;;15.80;10.30;;;;;;;0.30;100.00;100126.51;110296;1275;22789;-64
2023/02/27 07:43:24;;;;;;;13.20;9.20;;;;;;;0.34;100.00;100130.33;110428;1275;24012;-64
2023/02/27 07:45:52;;;;;;;15.00;9.40;;;;;;;0.41;100.00;100139.11;107857;1275;25290;-63
2023/02/27 07:48:23;;;;;;;11.30;8.90;;;;;;;0.37;100.00;100140.00;106813;1267;26565;-63
2023/02/27 07:50:52;;;;;;;13.60;10.00;;;;;;;0.30;100.00;100135.41;106485;1275;25248;-65
2023/02/27 07:53:21;;;;;;;13.50;9.40;;;;;;;0.32;100.00;100133.40;106903;1275;25369;-63
2023/02/27 07:55:49;;;;;;;14.00;9.40;;;;;;;0.31;100.00;100135.74;107082;1267;26620;-63
2023/02/27 07:58:19;;;;;;;13.10;9.60;;;;;;;0.30;100.00;100139.23;106569;1273;25371;-62
2023/02/27 08:00:47;;;;;;;14.20;10.10;;;;;;;0.29;100.00;100135.64;107490;1267;25376;-63
2023/02/27 08:03:17;;;;;;;13.80;10.20;;;;;;;0.29;100.00;100141.61;108262;1267;24397;-62
2023/02/27 08:05:45;;;;;;;11.40;8.40;;;;;;;0.28;100.00;100148.39;106453;1272;23334;-62
2023/02/27 08:08:13;;;;;;;13.30;8.90;;;;;;;0.30;100.00;100147.77;106507;1269;22715;-62
2023/02/27 08:10:42;;;;;;;12.30;9.30;;;;;;;0.33;100.00;100143.75;106678;1267;25340;-63
2023/02/27 08:13:13;;;;;;;9.90;7.60;;;;;;;0.30;100.00;100151.55;106581;1267;25207;-62
2023/02/27 08:15:41;;;;;;;11.80;9.10;;;;;;;0.28;100.00;100150.44;106686;1267;23765;-63
2023/02/27 08:18:24;;;;;;;16.80;10.00;;;;;;;0.23;100.00;100153.36;106704;1275;23862;-63
2023/02/27 08:20:54;;;;;;;13.30;9.30;;;;;;;0.16;100.00;100157.60;106507;1268;23917;-62
2023/02/27 08:23:23;;;;;;;14.40;10.30;;;;;;;0.15;100.00;100165.60;110429;1267;22424;-63
2023/02/27 08:25:51;;;;;;;15.60;9.90;;;;;;;0.15;100.00;100165.98;110368;1273;23246;-63
2023/02/27 08:28:22;;;;;;;14.10;9.20;;;;;;;0.16;100.00;100167.52;110413;1273;22164;-63
2023/02/27 08:30:50;;;;;;;12.70;8.80;;;;;;;0.20;100.00;100170.48;110359;1275;22286;-64
2023/02/27 08:33:18;;;;;;;14.80;10.00;;;;;;;0.18;100.00;100169.66;110417;1274;23066;-64
2023/02/27 08:35:47;;;;;;;16.20;9.50;;;;;;;0.20;100.00;100172.41;110356;1267;22961;-64
2023/02/27 08:38:15;;;;;;;12.20;9.40;;;;;;;0.30;100.00;100170.67;108967;1275;25100;-63
2023/02/27 08:40:43;;;;;;;13.40;9.10;;;;;;;0.36;100.00;100176.32;106580;1267;25366;-63
2023/02/27 08:43:12;;;;;;;12.80;9.00;;;;;;;0.34;100.00;100170.66;106562;1275;26682;-63
2023/02/27 08:45:41;;;;;;;13.00;9.40;;;;;;;0.39;100.00;100172.30;107117;1273;26229;-63
2023/02/27 08:48:12;;;;;;;12.80;9.00;;;;;;;0.42;100.00;100174.21;107165;1275;25487;-63
2023/02/27 08:50:41;;;;;;;14.40;10.30;;;;;;;0.39;100.00;100170.89;107248;1275;24248;-63
2023/02/27 08:53:11;;;;;;;14.80;9.80;;;;;;;0.37;100.00;100169.70;106804;1275;22812;-63
2023/02/27 09:00:32;;;;;;;14.10;7.80;;;;;;;0.29;100.00;100189.36;103767;1313;545367;-65
2023/02/27 09:03:01;;;;;;;11.90;8.00;;;;;;;0.23;100.00;100191.58;105886;1289;23680;-65
2023/02/27 09:05:33;;;;;;;10.50;7.00;;;;;;;0.16;100.00;100190.51;109328;1286;23153;-65
2023/02/27 09:08:03;;;;;;;10.40;7.60;;;;;;;0.12;100.00;100191.49;109424;1289;22250;-66
2023/02/27 09:10:34;;;;;;;10.60;7.40;;;;;;;0.20;100.00;100194.91;109466;1283;23758;-65
2023/02/27 09:13:08;;;;;;;11.50;8.00;;;;;;;0.22;100.00;100192.32;109198;1283;235485;-65
2023/02/27 09:15:37;;;;;;;13.50;8.40;;;;;;;0.24;100.00;100193.27;109583;1280;22608;-66
2023/02/27 09:18:08;;;;;;;12.90;8.00;;;;;;;0.35;100.00;100187.61;109545;1287;22281;-66
2023/02/27 09:20:36;;;;;;;11.20;8.00;;;;;;;0.42;100.00;100180.69;109521;1285;22219;-65
2023/02/27 09:23:04;;;;;;;10.50;8.00;;;;;;;0.38;100.00;100178.70;109582;1287;22285;-65
2023/02/27 09:25:33;;;;;;;10.60;6.50;;;;;;;0.38;100.00;100176.87;109534;1287;23094;-65
2023/02/27 09:28:02;;;;;;;10.30;7.00;;;;;;;0.42;100.00;100181.45;109600;1287;22200;-65
2023/02/27 09:30:32;;;;;;;9.50;6.20;;;;;;;0.44;100.00;100177.20;109114;1280;22536;-66
2023/02/27 09:33:00;;;;;;;9.90;6.20;;;;;;;0.58;100.00;100182.64;105912;1287;25362;-66
2023/02/27 09:35:29;;;;;;;10.10;6.60;;;;;;;0.65;100.00;100183.45;109628;1287;22376;-67
2023/02/27 09:37:57;;;;;;;7.40;5.80;;;;;;;0.64;100.00;100183.11;108426;1287;22564;-66
2023/02/27 09:40:27;;;;;;;8.20;5.70;;;;;;;0.69;100.00;100176.87;106042;1279;25363;-66
2023/02/27 09:43:01;;;;;;;9.40;6.80;;;;;;;0.74;100.00;100180.36;105876;1283;25292;-66
2023/02/27 09:45:30;;;;;;;7.60;5.00;;;;;;;0.77;100.00;100190.35;105891;1285;23729;-66
2023/02/27 09:48:07;;;;;;;8.50;5.20;;;;;;;0.84;100.00;100193.08;105861;1287;22548;-66
2023/02/27 09:50:36;;;;;;;;;;;;;;;0.87;100.00;100195.27;105801;1287;23887;-67
2023/02/27 09:53:18;;;;;;;9.20;6.50;;;;;;;0.83;100.00;100198.71;106229;1287;23511;-66
2023/02/27 09:55:46;;;;;;;6.50;4.20;;;;;;;0.83;100.00;100196.73;105847;1280;26747;-66
2023/02/27 09:58:41;;;;;;;6.20;4.20;;;;;;;0.91;100.00;100199.30;105770;1286;25366;-66
2023/02/27 10:01:27;;;;;;;7.10;5.20;;;;;;;0.96;100.00;100192.27;109582;1285;23096;-66
2023/02/27 10:04:20;;;;;;;7.80;5.30;;;;;;;1.00;100.00;100192.75;109546;1286;22199;-67
2023/02/27 10:06:56;;;;;;;8.70;5.80;;;;;;;1.05;100.00;100195.50;110163;1278;23060;-66
2023/02/27 10:09:35;;;;;;;6.90;5.40;;;;;;;1.04;100.00;100193.71;110116;1278;22717;-66
2023/02/27 10:12:06;;;;;;;6.60;5.30;;;;;;;1.01;100.00;100199.47;110022;1276;22225;-66
2023/02/27 10:14:41;;;;;;;10.10;6.80;;;;;;;1.03;100.00;100199.73;110119;1278;22221;-66
2023/02/27 10:17:17;;;;;;;7.80;5.40;;;;;;;1.05;100.00;100202.55;110080;1278;22478;-66
2023/02/27 10:19:46;;;;;;;8.50;5.40;;;;;;;0.99;100.00;100203.64;109988;1274;22184;-66
2023/02/27 10:22:19;;;;;;;8.50;4.70;;;;;;;0.93;100.00;100206.42;110080;1275;22380;-66
2023/02/27 10:24:51;;;;;;;7.60;5.20;;;;;;;0.90;100.00;100208.38;110007;1278;22399;-66
2023/02/27 10:27:20;;;;;;;8.40;5.80;;;;;;;0.77;100.00;100206.02;106655;1279;22544;-65
2023/02/27 10:29:49;;;;;;;7.60;5.30;;;;;;;0.74;100.00;100207.11;106828;1273;25424;-65
2023/02/27 10:32:20;;;;;;;8.80;5.10;;;;;;;0.77;100.00;100210.85;106936;1279;26262;-65
2023/02/27 10:34:53;;;;;;;9.60;6.00;;;;;;;0.76;100.00;100212.86;106487;1273;23288;-65
2023/02/27 10:37:23;;;;;;;6.50;4.60;;;;;;;0.80;100.00;100218.58;107020;1272;25294;-66
2023/02/27 10:39:51;;;;;;;9.50;5.40;;;;;;;0.87;100.00;100222.94;108659;1257;22543;-65
2023/02/27 10:42:22;;;;;;;7.10;5.40;;;;;;;0.76;100.00;100219.45;106563;1276;25300;-65
2023/02/27 10:44:54;;;;;;;7.00;5.00;;;;;;;0.65;100.00;100220.78;106927;1278;22539;-65
2023/02/27 10:47:23;;;;;;;8.90;5.80;;;;;;;0.63;100.00;100222.75;106575;1276;25353;-65
2023/02/27 10:49:52;;;;;;;11.00;6.10;;;;;;;0.58;100.00;100225.51;107322;1273;22486;-65
2023/02/27 10:52:21;;;;;;;8.20;5.90;;;;;;;0.55;100.00;100228.00;110020;1279;22244;-66
2023/02/27 10:54:49;;;;;;;7.80;5.20;;;;;;;0.60;100.00;100227.05;110132;1278;23012;-66
2023/02/27 10:57:29;;;;;;;9.20;6.10;;;;;;;0.60;100.00;100215.70;110134;1272;23258;-66
2023/02/27 10:59:58;;;;;;;7.80;5.10;;;;;;;0.62;100.00;100213.46;109959;1279;22305;-66
2023/02/27 11:02:34;;;;;;;6.70;4.70;;;;;;;0.68;100.00;100215.61;109903;1273;22308;-66
2023/02/27 11:05:25;;;;;;;;;;;;;;;0.67;100.00;100217.83;109989;1273;22442;-66
2023/02/27 11:08:10;;;;;;;7.90;5.20;;;;;;;0.57;100.00;100214.71;110005;1276;22420;-66
2023/02/27 11:10:56;;;;;;;8.30;5.30;;;;;;;0.62;100.00;100220.19;109959;1272;23180;-67
2023/02/27 11:13:28;;;;;;;7.20;5.00;;;;;;;0.62;100.00;100217.27;110132;1277;22285;-67
2023/02/27 11:16:11;;;;;;;7.80;5.20;;;;;;;0.51;100.00;100219.24;110113;1278;22334;-67
2023/02/27 11:18:45;;;;;;;8.20;5.10;;;;;;;0.51;100.00;100223.31;110147;1278;22678;-67
2023/02/27 11:21:25;;;;;;;8.00;5.10;;;;;;;0.50;100.00;100221.67;110160;1278;22216;-67
2023/02/27 11:23:59;;;;;;;7.50;5.00;;;;;;;0.52;100.00;100224.11;110092;1279;22368;-67
2023/02/27 11:26:35;;;;;;;6.70;4.80;;;;;;;0.55;100.00;100220.60;110141;1272;22439;-67
2023/02/27 11:29:17;;;;;;;7.40;5.30;;;;;;;0.53;100.00;100221.98;110147;1279;22303;-67
2023/02/27 11:32:10;;;;;;;8.10;5.40;;;;;;;0.47;100.00;100220.33;110149;1278;22726;-67
2023/02/27 11:34:45;;;;;;;7.80;4.80;;;;;;;0.56;100.00;100221.79;110102;1277;22243;-66
2023/02/27 11:37:32;;;;;;;6.60;4.80;;;;;;;0.60;100.00;100222.55;110151;1278;22226;-66
2023/02/27 11:40:01;;;;;;;10.20;5.50;;;;;;;0.62;100.00;100219.04;110102;1278;22181;-67
2023/02/27 11:42:31;;;;;;;6.90;4.70;;;;;;;0.66;100.00;100216.13;110089;1272;22304;-67
2023/02/27 11:45:00;;;;;;;8.20;5.80;;;;;;;0.71;100.00;100211.79;109933;1276;22400;-67
2023/02/27 11:47:34;;;;;;;7.40;4.60;;;;;;;0.71;100.00;100207.14;110023;1274;22236;-67